sensor_id;sensor_type;location;lat;lon;timestamp;P1;durP1;ratioP1;P2;durP2;ratioP2
37411;SDS011;23278;52.110;6.050;2023-08-20T00:02:02;4.72;;;2.55;;
37411;SDS011;23278;52.110;6.050;2023-08-20T00:04:33;6.30;;;2.80;;
37411;SDS011;23278;52.110;6.050;2023-08-20T00:07:02;2.35;;;1.20;;
37411;SDS011;23278;52.110;6.050;2023-08-20T00:09:28;3.08;;;1.30;;
37411;SDS011;23278;52.110;6.050;2023-08-20T00:11:55;4.00;;;1.73;;
37411;SDS011;23278;52.110;6.050;2023-08-20T00:14:21;3.30;;;1.42;;
37411;SDS011;23278;52.110;6.050;2023-08-20T00:17:30;6.53;;;2.67;;
37411;SDS011;23278;52.110;6.050;2023-08-20T00:20:01;3.65;;;1.95;;
37411;SDS011;23278;52.110;6.050;2023-08-20T00:22:34;4.65;;;1.88;;
37411;SDS011;23278;52.110;6.050;2023-08-20T00:25:00;7.45;;;2.28;;
37411;SDS011;23278;52.110;6.050;2023-08-20T00:27:28;3.75;;;2.00;;
37411;SDS011;23278;52.110;6.050;2023-08-20T00:29:54;8.43;;;2.30;;
37411;SDS011;23278;52.110;6.050;2023-08-20T00:32:20;5.18;;;2.45;;
37411;SDS011;23278;52.110;6.050;2023-08-20T00:34:46;11.45;;;3.33;;
37411;SDS011;23278;52.110;6.050;2023-08-20T00:37:12;8.10;;;2.80;;
37411;SDS011;23278;52.110;6.050;2023-08-20T00:39:38;5.28;;;3.03;;
37411;SDS011;23278;52.110;6.050;2023-08-20T00:42:04;7.13;;;2.40;;
37411;SDS011;23278;52.110;6.050;2023-08-20T00:44:31;5.03;;;2.80;;
37411;SDS011;23278;52.110;6.050;2023-08-20T00:46:57;3.83;;;1.92;;
37411;SDS011;23278;52.110;6.050;2023-08-20T00:49:25;4.03;;;2.15;;
37411;SDS011;23278;52.110;6.050;2023-08-20T00:51:51;4.35;;;1.80;;
37411;SDS011;23278;52.110;6.050;2023-08-20T00:54:18;5.82;;;2.08;;
37411;SDS011;23278;52.110;6.050;2023-08-20T00:56:45;5.47;;;1.83;;
37411;SDS011;23278;52.110;6.050;2023-08-20T00:59:13;5.57;;;1.63;;
37411;SDS011;23278;52.110;6.050;2023-08-20T01:01:39;8.98;;;1.80;;
37411;SDS011;23278;52.110;6.050;2023-08-20T01:04:05;5.10;;;1.63;;
37411;SDS011;23278;52.110;6.050;2023-08-20T01:12:04;2.92;;;1.58;;
37411;SDS011;23278;52.110;6.050;2023-08-20T01:14:32;3.08;;;1.40;;
37411;SDS011;23278;52.110;6.050;2023-08-20T01:16:59;2.95;;;1.52;;
37411;SDS011;23278;52.110;6.050;2023-08-20T01:19:25;3.58;;;1.95;;
37411;SDS011;23278;52.110;6.050;2023-08-20T01:30:10;2.78;;;1.15;;
37411;SDS011;23278;52.110;6.050;2023-08-20T01:32:37;4.32;;;1.45;;
37411;SDS011;23278;52.110;6.050;2023-08-20T01:35:14;2.13;;;1.38;;
37411;SDS011;23278;52.110;6.050;2023-08-20T01:37:41;3.08;;;1.50;;
37411;SDS011;23278;52.110;6.050;2023-08-20T01:40:09;2.95;;;1.45;;
37411;SDS011;23278;52.110;6.050;2023-08-20T01:42:36;3.42;;;1.63;;
37411;SDS011;23278;52.110;6.050;2023-08-20T01:45:03;1.90;;;0.90;;
37411;SDS011;23278;52.110;6.050;2023-08-20T01:47:31;4.32;;;1.35;;
37411;SDS011;23278;52.110;6.050;2023-08-20T01:49:59;3.38;;;1.20;;
37411;SDS011;23278;52.110;6.050;2023-08-20T01:52:25;2.03;;;1.35;;
37411;SDS011;23278;52.110;6.050;2023-08-20T01:54:51;3.33;;;1.30;;
37411;SDS011;23278;52.110;6.050;2023-08-20T01:57:18;3.30;;;1.05;;
37411;SDS011;23278;52.110;6.050;2023-08-20T01:59:44;2.38;;;1.10;;
37411;SDS011;23278;52.110;6.050;2023-08-20T02:02:10;1.95;;;1.08;;
37411;SDS011;23278;52.110;6.050;2023-08-20T02:04:36;1.95;;;0.90;;
37411;SDS011;23278;52.110;6.050;2023-08-20T02:07:03;3.22;;;1.55;;
37411;SDS011;23278;52.110;6.050;2023-08-20T02:09:30;4.10;;;1.23;;
37411;SDS011;23278;52.110;6.050;2023-08-20T02:11:55;2.47;;;1.02;;
37411;SDS011;23278;52.110;6.050;2023-08-20T02:14:21;4.80;;;1.80;;
37411;SDS011;23278;52.110;6.050;2023-08-20T02:16:48;1.80;;;1.08;;
37411;SDS011;23278;52.110;6.050;2023-08-20T02:19:13;3.00;;;1.55;;
37411;SDS011;23278;52.110;6.050;2023-08-20T02:21:40;2.90;;;1.10;;
37411;SDS011;23278;52.110;6.050;2023-08-20T02:24:06;4.63;;;1.20;;
37411;SDS011;23278;52.110;6.050;2023-08-20T02:26:32;3.38;;;1.17;;
37411;SDS011;23278;52.110;6.050;2023-08-20T02:28:58;1.92;;;1.10;;
37411;SDS011;23278;52.110;6.050;2023-08-20T02:31:24;2.70;;;1.30;;
37411;SDS011;23278;52.110;6.050;2023-08-20T02:33:50;2.90;;;1.10;;
37411;SDS011;23278;52.110;6.050;2023-08-20T02:36:16;2.40;;;1.08;;
37411;SDS011;23278;52.110;6.050;2023-08-20T02:38:41;5.68;;;1.30;;
37411;SDS011;23278;52.110;6.050;2023-08-20T02:41:07;4.07;;;1.60;;
37411;SDS011;23278;52.110;6.050;2023-08-20T02:43:33;4.78;;;2.00;;
37411;SDS011;23278;52.110;6.050;2023-08-20T02:46:00;2.03;;;1.08;;
37411;SDS011;23278;52.110;6.050;2023-08-20T02:48:26;1.98;;;0.90;;
37411;SDS011;23278;52.110;6.050;2023-08-20T02:50:53;2.05;;;1.10;;
37411;SDS011;23278;52.110;6.050;2023-08-20T02:53:20;4.43;;;1.27;;
37411;SDS011;23278;52.110;6.050;2023-08-20T02:55:46;1.58;;;1.08;;
37411;SDS011;23278;52.110;6.050;2023-08-20T02:58:12;3.55;;;1.00;;
37411;SDS011;23278;52.110;6.050;2023-08-20T03:00:38;2.15;;;1.30;;
37411;SDS011;23278;52.110;6.050;2023-08-20T03:03:05;2.40;;;1.30;;
37411;SDS011;23278;52.110;6.050;2023-08-20T03:05:34;3.97;;;1.85;;
37411;SDS011;23278;52.110;6.050;2023-08-20T03:08:00;3.85;;;1.17;;
37411;SDS011;23278;52.110;6.050;2023-08-20T03:10:30;3.13;;;1.67;;
37411;SDS011;23278;52.110;6.050;2023-08-20T03:12:57;5.57;;;1.17;;
37411;SDS011;23278;52.110;6.050;2023-08-20T03:15:24;5.60;;;1.20;;
37411;SDS011;23278;52.110;6.050;2023-08-20T03:17:50;2.08;;;1.20;;
37411;SDS011;23278;52.110;6.050;2023-08-20T03:20:16;4.03;;;1.15;;
37411;SDS011;23278;52.110;6.050;2023-08-20T03:22:42;5.57;;;1.48;;
37411;SDS011;23278;52.110;6.050;2023-08-20T03:25:08;2.08;;;1.00;;
37411;SDS011;23278;52.110;6.050;2023-08-20T03:27:34;3.25;;;1.20;;
37411;SDS011;23278;52.110;6.050;2023-08-20T03:30:00;2.72;;;1.30;;
37411;SDS011;23278;52.110;6.050;2023-08-20T03:32:26;2.67;;;1.80;;
37411;SDS011;23278;52.110;6.050;2023-08-20T03:34:52;2.50;;;1.95;;
37411;SDS011;23278;52.110;6.050;2023-08-20T03:37:19;4.60;;;1.40;;
37411;SDS011;23278;52.110;6.050;2023-08-20T03:39:45;2.35;;;1.23;;
37411;SDS011;23278;52.110;6.050;2023-08-20T03:42:11;2.72;;;1.50;;
37411;SDS011;23278;52.110;6.050;2023-08-20T03:44:37;5.18;;;1.95;;
37411;SDS011;23278;52.110;6.050;2023-08-20T03:47:03;5.05;;;1.30;;
37411;SDS011;23278;52.110;6.050;2023-08-20T03:49:29;2.90;;;1.75;;
37411;SDS011;23278;52.110;6.050;2023-08-20T03:51:55;4.93;;;2.72;;
37411;SDS011;23278;52.110;6.050;2023-08-20T03:54:21;5.22;;;1.52;;
37411;SDS011;23278;52.110;6.050;2023-08-20T03:56:47;4.07;;;1.60;;
37411;SDS011;23278;52.110;6.050;2023-08-20T03:59:12;3.20;;;1.73;;
37411;SDS011;23278;52.110;6.050;2023-08-20T04:01:38;4.50;;;1.98;;
37411;SDS011;23278;52.110;6.050;2023-08-20T04:04:04;4.70;;;1.25;;
37411;SDS011;23278;52.110;6.050;2023-08-20T04:06:31;3.88;;;1.70;;
37411;SDS011;23278;52.110;6.050;2023-08-20T04:08:56;4.75;;;1.25;;
37411;SDS011;23278;52.110;6.050;2023-08-20T04:11:22;3.25;;;1.30;;
37411;SDS011;23278;52.110;6.050;2023-08-20T04:13:48;4.35;;;1.50;;
37411;SDS011;23278;52.110;6.050;2023-08-20T04:16:14;3.38;;;1.98;;
37411;SDS011;23278;52.110;6.050;2023-08-20T04:18:40;3.13;;;1.65;;
37411;SDS011;23278;52.110;6.050;2023-08-20T04:21:06;2.67;;;1.65;;
37411;SDS011;23278;52.110;6.050;2023-08-20T04:23:36;2.45;;;1.25;;
37411;SDS011;23278;52.110;6.050;2023-08-20T04:26:02;2.83;;;1.60;;
37411;SDS011;23278;52.110;6.050;2023-08-20T04:28:28;4.43;;;1.80;;
37411;SDS011;23278;52.110;6.050;2023-08-20T04:30:54;4.65;;;1.60;;
37411;SDS011;23278;52.110;6.050;2023-08-20T04:33:24;3.67;;;1.70;;
37411;SDS011;23278;52.110;6.050;2023-08-20T04:35:51;4.20;;;1.42;;
37411;SDS011;23278;52.110;6.050;2023-08-20T04:38:17;2.88;;;1.70;;
37411;SDS011;23278;52.110;6.050;2023-08-20T04:40:46;2.95;;;1.33;;
37411;SDS011;23278;52.110;6.050;2023-08-20T04:43:13;2.65;;;1.48;;
37411;SDS011;23278;52.110;6.050;2023-08-20T04:45:40;3.70;;;1.75;;
37411;SDS011;23278;52.110;6.050;2023-08-20T04:48:06;2.08;;;1.52;;
37411;SDS011;23278;52.110;6.050;2023-08-20T04:50:32;2.03;;;1.40;;
37411;SDS011;23278;52.110;6.050;2023-08-20T04:52:58;2.92;;;1.70;;
37411;SDS011;23278;52.110;6.050;2023-08-20T04:55:29;1.83;;;1.02;;
37411;SDS011;23278;52.110;6.050;2023-08-20T04:57:55;3.13;;;1.58;;
37411;SDS011;23278;52.110;6.050;2023-08-20T05:00:21;3.33;;;1.65;;
37411;SDS011;23278;52.110;6.050;2023-08-20T05:03:03;5.43;;;1.98;;
37411;SDS011;23278;52.110;6.050;2023-08-20T05:05:29;4.32;;;1.80;;
37411;SDS011;23278;52.110;6.050;2023-08-20T05:07:55;3.53;;;2.00;;
37411;SDS011;23278;52.110;6.050;2023-08-20T05:10:22;3.17;;;2.85;;
37411;SDS011;23278;52.110;6.050;2023-08-20T05:12:48;1.88;;;1.45;;
37411;SDS011;23278;52.110;6.050;2023-08-20T05:15:15;2.42;;;1.23;;
37411;SDS011;23278;52.110;6.050;2023-08-20T05:17:41;2.90;;;1.27;;
37411;SDS011;23278;52.110;6.050;2023-08-20T05:20:07;5.22;;;1.73;;
37411;SDS011;23278;52.110;6.050;2023-08-20T05:22:34;3.38;;;2.28;;
37411;SDS011;23278;52.110;6.050;2023-08-20T05:25:00;5.53;;;2.50;;
37411;SDS011;23278;52.110;6.050;2023-08-20T05:27:27;3.17;;;1.92;;
37411;SDS011;23278;52.110;6.050;2023-08-20T05:29:54;3.17;;;2.20;;
37411;SDS011;23278;52.110;6.050;2023-08-20T05:32:20;3.17;;;1.30;;
37411;SDS011;23278;52.110;6.050;2023-08-20T05:34:46;3.03;;;1.48;;
37411;SDS011;23278;52.110;6.050;2023-08-20T05:37:12;2.60;;;1.58;;
37411;SDS011;23278;52.110;6.050;2023-08-20T05:39:41;2.38;;;1.45;;
37411;SDS011;23278;52.110;6.050;2023-08-20T05:42:09;5.72;;;1.83;;
37411;SDS011;23278;52.110;6.050;2023-08-20T05:44:36;5.72;;;1.95;;
37411;SDS011;23278;52.110;6.050;2023-08-20T05:47:02;2.25;;;1.00;;
37411;SDS011;23278;52.110;6.050;2023-08-20T05:49:30;2.83;;;1.42;;
37411;SDS011;23278;52.110;6.050;2023-08-20T05:51:56;4.07;;;1.52;;
37411;SDS011;23278;52.110;6.050;2023-08-20T05:54:22;4.07;;;1.40;;
37411;SDS011;23278;52.110;6.050;2023-08-20T05:56:51;4.05;;;1.35;;
37411;SDS011;23278;52.110;6.050;2023-08-20T05:59:18;3.58;;;1.38;;
37411;SDS011;23278;52.110;6.050;2023-08-20T06:01:44;5.75;;;1.88;;
37411;SDS011;23278;52.110;6.050;2023-08-20T06:04:10;3.03;;;1.38;;
37411;SDS011;23278;52.110;6.050;2023-08-20T06:06:37;2.60;;;1.40;;
37411;SDS011;23278;52.110;6.050;2023-08-20T06:09:03;4.43;;;1.38;;
37411;SDS011;23278;52.110;6.050;2023-08-20T06:11:29;4.35;;;1.33;;
37411;SDS011;23278;52.110;6.050;2023-08-20T06:13:55;2.50;;;1.25;;
37411;SDS011;23278;52.110;6.050;2023-08-20T06:16:21;7.32;;;1.80;;
37411;SDS011;23278;52.110;6.050;2023-08-20T06:18:47;6.00;;;1.77;;
37411;SDS011;23278;52.110;6.050;2023-08-20T06:21:12;3.90;;;1.70;;
37411;SDS011;23278;52.110;6.050;2023-08-20T06:23:38;2.63;;;1.13;;
37411;SDS011;23278;52.110;6.050;2023-08-20T06:26:04;3.72;;;1.55;;
37411;SDS011;23278;52.110;6.050;2023-08-20T06:28:30;3.08;;;1.10;;
37411;SDS011;23278;52.110;6.050;2023-08-20T06:30:56;4.30;;;1.60;;
37411;SDS011;23278;52.110;6.050;2023-08-20T06:33:22;4.95;;;1.38;;
37411;SDS011;23278;52.110;6.050;2023-08-20T06:35:48;4.78;;;1.50;;
37411;SDS011;23278;52.110;6.050;2023-08-20T06:38:14;4.90;;;1.00;;
37411;SDS011;23278;52.110;6.050;2023-08-20T06:40:40;5.00;;;1.30;;
37411;SDS011;23278;52.110;6.050;2023-08-20T06:43:06;3.78;;;1.77;;
37411;SDS011;23278;52.110;6.050;2023-08-20T06:45:32;3.13;;;1.20;;
37411;SDS011;23278;52.110;6.050;2023-08-20T06:47:57;4.78;;;1.23;;
37411;SDS011;23278;52.110;6.050;2023-08-20T06:50:23;4.85;;;1.30;;
37411;SDS011;23278;52.110;6.050;2023-08-20T06:52:49;3.47;;;1.10;;
37411;SDS011;23278;52.110;6.050;2023-08-20T06:55:15;4.18;;;0.90;;
37411;SDS011;23278;52.110;6.050;2023-08-20T06:57:41;4.07;;;1.30;;
37411;SDS011;23278;52.110;6.050;2023-08-20T07:00:07;4.82;;;1.20;;
37411;SDS011;23278;52.110;6.050;2023-08-20T07:02:33;3.88;;;1.30;;
37411;SDS011;23278;52.110;6.050;2023-08-20T07:04:59;3.55;;;1.10;;
37411;SDS011;23278;52.110;6.050;2023-08-20T07:07:25;5.03;;;1.30;;
37411;SDS011;23278;52.110;6.050;2023-08-20T07:09:50;3.05;;;1.05;;
37411;SDS011;23278;52.110;6.050;2023-08-20T07:12:16;2.85;;;1.10;;
37411;SDS011;23278;52.110;6.050;2023-08-20T07:14:42;4.10;;;1.23;;
37411;SDS011;23278;52.110;6.050;2023-08-20T07:17:08;3.83;;;1.40;;
37411;SDS011;23278;52.110;6.050;2023-08-20T07:19:36;6.63;;;1.48;;
37411;SDS011;23278;52.110;6.050;2023-08-20T07:22:02;2.85;;;1.00;;
37411;SDS011;23278;52.110;6.050;2023-08-20T07:24:28;3.15;;;1.27;;
37411;SDS011;23278;52.110;6.050;2023-08-20T07:26:55;3.70;;;1.10;;
37411;SDS011;23278;52.110;6.050;2023-08-20T07:29:26;2.80;;;1.05;;
37411;SDS011;23278;52.110;6.050;2023-08-20T07:31:55;2.72;;;1.15;;
37411;SDS011;23278;52.110;6.050;2023-08-20T07:34:22;4.18;;;0.85;;
37411;SDS011;23278;52.110;6.050;2023-08-20T07:36:48;2.20;;;0.93;;
37411;SDS011;23278;52.110;6.050;2023-08-20T07:39:14;3.72;;;0.90;;
37411;SDS011;23278;52.110;6.050;2023-08-20T07:41:40;4.65;;;0.90;;
37411;SDS011;23278;52.110;6.050;2023-08-20T07:44:07;2.40;;;0.80;;
37411;SDS011;23278;52.110;6.050;2023-08-20T07:46:33;3.05;;;0.77;;
37411;SDS011;23278;52.110;6.050;2023-08-20T07:48:58;3.28;;;0.75;;
37411;SDS011;23278;52.110;6.050;2023-08-20T07:51:24;3.78;;;0.82;;
37411;SDS011;23278;52.110;6.050;2023-08-20T07:53:50;5.50;;;1.00;;
37411;SDS011;23278;52.110;6.050;2023-08-20T07:56:16;2.22;;;0.85;;
37411;SDS011;23278;52.110;6.050;2023-08-20T07:58:42;2.85;;;1.02;;
37411;SDS011;23278;52.110;6.050;2023-08-20T08:01:08;2.80;;;0.93;;
37411;SDS011;23278;52.110;6.050;2023-08-20T08:03:34;2.83;;;0.90;;
37411;SDS011;23278;52.110;6.050;2023-08-20T08:06:00;1.30;;;0.65;;
37411;SDS011;23278;52.110;6.050;2023-08-20T08:08:25;2.63;;;0.70;;
37411;SDS011;23278;52.110;6.050;2023-08-20T08:10:51;1.40;;;0.60;;
37411;SDS011;23278;52.110;6.050;2023-08-20T08:13:19;2.33;;;0.85;;
37411;SDS011;23278;52.110;6.050;2023-08-20T08:15:46;2.00;;;1.00;;
37411;SDS011;23278;52.110;6.050;2023-08-20T08:18:12;3.05;;;0.80;;
37411;SDS011;23278;52.110;6.050;2023-08-20T08:20:38;3.13;;;0.70;;
37411;SDS011;23278;52.110;6.050;2023-08-20T08:23:04;2.03;;;0.70;;
37411;SDS011;23278;52.110;6.050;2023-08-20T08:25:30;1.95;;;0.65;;
37411;SDS011;23278;52.110;6.050;2023-08-20T08:27:56;2.00;;;0.73;;
37411;SDS011;23278;52.110;6.050;2023-08-20T08:30:21;1.35;;;0.52;;
37411;SDS011;23278;52.110;6.050;2023-08-20T08:32:47;2.75;;;0.98;;
37411;SDS011;23278;52.110;6.050;2023-08-20T08:35:13;7.68;;;1.02;;
37411;SDS011;23278;52.110;6.050;2023-08-20T08:37:39;1.60;;;0.50;;
37411;SDS011;23278;52.110;6.050;2023-08-20T08:40:05;4.28;;;0.70;;
37411;SDS011;23278;52.110;6.050;2023-08-20T08:42:32;3.42;;;1.00;;
37411;SDS011;23278;52.110;6.050;2023-08-20T08:45:02;3.15;;;0.80;;
37411;SDS011;23278;52.110;6.050;2023-08-20T08:47:29;1.25;;;0.60;;
37411;SDS011;23278;52.110;6.050;2023-08-20T08:49:56;1.33;;;0.57;;
37411;SDS011;23278;52.110;6.050;2023-08-20T08:52:22;2.40;;;0.80;;
37411;SDS011;23278;52.110;6.050;2023-08-20T08:54:48;2.20;;;0.80;;
37411;SDS011;23278;52.110;6.050;2023-08-20T08:57:15;0.88;;;0.50;;
37411;SDS011;23278;52.110;6.050;2023-08-20T08:59:42;1.15;;;0.60;;
37411;SDS011;23278;52.110;6.050;2023-08-20T09:02:09;1.63;;;0.70;;
37411;SDS011;23278;52.110;6.050;2023-08-20T09:04:39;2.75;;;0.70;;
37411;SDS011;23278;52.110;6.050;2023-08-20T09:07:10;1.50;;;0.60;;
37411;SDS011;23278;52.110;6.050;2023-08-20T09:09:38;1.35;;;0.50;;
37411;SDS011;23278;52.110;6.050;2023-08-20T09:12:12;1.20;;;0.50;;
37411;SDS011;23278;52.110;6.050;2023-08-20T09:14:49;1.83;;;0.65;;
37411;SDS011;23278;52.110;6.050;2023-08-20T09:17:16;1.35;;;0.60;;
37411;SDS011;23278;52.110;6.050;2023-08-20T09:19:43;3.70;;;0.70;;
37411;SDS011;23278;52.110;6.050;2023-08-20T09:22:13;3.05;;;0.75;;
37411;SDS011;23278;52.110;6.050;2023-08-20T09:27:13;1.95;;;0.47;;
37411;SDS011;23278;52.110;6.050;2023-08-20T09:29:46;2.58;;;0.70;;
37411;SDS011;23278;52.110;6.050;2023-08-20T09:32:14;2.10;;;0.55;;
37411;SDS011;23278;52.110;6.050;2023-08-20T09:34:41;1.42;;;0.70;;
37411;SDS011;23278;52.110;6.050;2023-08-20T09:37:12;1.73;;;0.52;;
37411;SDS011;23278;52.110;6.050;2023-08-20T09:39:39;1.50;;;0.55;;
37411;SDS011;23278;52.110;6.050;2023-08-20T09:42:05;2.20;;;0.57;;
37411;SDS011;23278;52.110;6.050;2023-08-20T09:44:33;2.33;;;0.60;;
37411;SDS011;23278;52.110;6.050;2023-08-20T09:49:32;1.15;;;0.50;;
37411;SDS011;23278;52.110;6.050;2023-08-20T09:52:03;2.60;;;0.55;;
37411;SDS011;23278;52.110;6.050;2023-08-20T09:55:16;1.80;;;0.55;;
37411;SDS011;23278;52.110;6.050;2023-08-20T09:57:27;1.40;;;0.82;;
37411;SDS011;23278;52.110;6.050;2023-08-20T09:59:58;1.40;;;0.40;;
37411;SDS011;23278;52.110;6.050;2023-08-20T10:02:25;1.80;;;0.50;;
37411;SDS011;23278;52.110;6.050;2023-08-20T10:04:52;1.92;;;0.60;;
37411;SDS011;23278;52.110;6.050;2023-08-20T10:07:18;1.25;;;0.50;;
37411;SDS011;23278;52.110;6.050;2023-08-20T10:09:45;2.38;;;0.40;;
37411;SDS011;23278;52.110;6.050;2023-08-20T10:12:15;1.23;;;0.32;;
37411;SDS011;23278;52.110;6.050;2023-08-20T10:14:44;2.38;;;0.40;;
37411;SDS011;23278;52.110;6.050;2023-08-20T10:17:11;2.08;;;0.40;;
37411;SDS011;23278;52.110;6.050;2023-08-20T10:19:37;2.53;;;0.65;;
37411;SDS011;23278;52.110;6.050;2023-08-20T10:22:04;1.35;;;0.30;;
37411;SDS011;23278;52.110;6.050;2023-08-20T10:24:47;1.45;;;0.55;;
37411;SDS011;23278;52.110;6.050;2023-08-20T10:27:24;2.10;;;0.40;;
37411;SDS011;23278;52.110;6.050;2023-08-20T10:29:57;1.20;;;0.40;;
37411;SDS011;23278;52.110;6.050;2023-08-20T10:32:43;2.08;;;0.45;;
37411;SDS011;23278;52.110;6.050;2023-08-20T10:35:11;1.65;;;0.60;;
37411;SDS011;23278;52.110;6.050;2023-08-20T10:37:37;2.95;;;0.40;;
37411;SDS011;23278;52.110;6.050;2023-08-20T10:40:06;0.98;;;0.40;;
37411;SDS011;23278;52.110;6.050;2023-08-20T10:42:32;1.50;;;0.50;;
37411;SDS011;23278;52.110;6.050;2023-08-20T10:45:07;1.48;;;0.50;;
37411;SDS011;23278;52.110;6.050;2023-08-20T10:50:09;4.75;;;0.63;;
37411;SDS011;23278;52.110;6.050;2023-08-20T10:52:40;1.33;;;0.30;;
37411;SDS011;23278;52.110;6.050;2023-08-20T10:55:07;3.33;;;0.40;;
37411;SDS011;23278;52.110;6.050;2023-08-20T10:57:35;1.35;;;0.57;;
37411;SDS011;23278;52.110;6.050;2023-08-20T11:00:04;1.25;;;0.45;;
37411;SDS011;23278;52.110;6.050;2023-08-20T11:02:38;1.52;;;0.52;;
37411;SDS011;23278;52.110;6.050;2023-08-20T11:05:09;3.17;;;0.40;;
37411;SDS011;23278;52.110;6.050;2023-08-20T11:07:42;3.25;;;0.65;;
37411;SDS011;23278;52.110;6.050;2023-08-20T11:10:10;1.95;;;0.38;;
37411;SDS011;23278;52.110;6.050;2023-08-20T11:12:37;2.85;;;0.70;;
37411;SDS011;23278;52.110;6.050;2023-08-20T11:15:03;1.92;;;0.50;;
37411;SDS011;23278;52.110;6.050;2023-08-20T11:17:30;1.38;;;0.40;;
37411;SDS011;23278;52.110;6.050;2023-08-20T11:19:56;3.55;;;0.40;;
37411;SDS011;23278;52.110;6.050;2023-08-20T11:22:22;2.28;;;0.50;;
37411;SDS011;23278;52.110;6.050;2023-08-20T11:24:48;1.50;;;0.40;;
37411;SDS011;23278;52.110;6.050;2023-08-20T11:27:13;2.25;;;0.40;;
37411;SDS011;23278;52.110;6.050;2023-08-20T11:29:42;1.10;;;0.30;;
37411;SDS011;23278;52.110;6.050;2023-08-20T11:32:09;2.80;;;0.50;;
37411;SDS011;23278;52.110;6.050;2023-08-20T11:34:36;2.60;;;0.40;;
37411;SDS011;23278;52.110;6.050;2023-08-20T11:37:04;2.45;;;0.63;;
37411;SDS011;23278;52.110;6.050;2023-08-20T11:39:31;1.42;;;0.40;;
37411;SDS011;23278;52.110;6.050;2023-08-20T11:41:57;1.77;;;0.50;;
37411;SDS011;23278;52.110;6.050;2023-08-20T11:44:24;1.27;;;0.40;;
37411;SDS011;23278;52.110;6.050;2023-08-20T11:46:51;1.77;;;0.50;;
37411;SDS011;23278;52.110;6.050;2023-08-20T11:49:20;2.10;;;0.40;;
37411;SDS011;23278;52.110;6.050;2023-08-20T11:51:52;1.60;;;0.38;;
37411;SDS011;23278;52.110;6.050;2023-08-20T11:54:20;3.28;;;0.57;;
37411;SDS011;23278;52.110;6.050;2023-08-20T11:56:49;1.38;;;0.40;;
37411;SDS011;23278;52.110;6.050;2023-08-20T11:59:16;1.33;;;0.47;;
37411;SDS011;23278;52.110;6.050;2023-08-20T12:01:56;2.42;;;0.38;;
37411;SDS011;23278;52.110;6.050;2023-08-20T12:04:23;1.95;;;0.52;;
37411;SDS011;23278;52.110;6.050;2023-08-20T12:09:53;1.55;;;0.43;;
37411;SDS011;23278;52.110;6.050;2023-08-20T12:12:20;2.47;;;0.40;;
37411;SDS011;23278;52.110;6.050;2023-08-20T12:14:47;2.05;;;0.50;;
37411;SDS011;23278;52.110;6.050;2023-08-20T12:17:19;1.60;;;0.50;;
37411;SDS011;23278;52.110;6.050;2023-08-20T12:19:46;2.05;;;0.50;;
37411;SDS011;23278;52.110;6.050;2023-08-20T12:22:12;2.17;;;0.60;;
37411;SDS011;23278;52.110;6.050;2023-08-20T12:24:38;2.85;;;0.47;;
37411;SDS011;23278;52.110;6.050;2023-08-20T12:27:04;0.85;;;0.40;;
37411;SDS011;23278;52.110;6.050;2023-08-20T12:29:30;1.08;;;0.40;;
37411;SDS011;23278;52.110;6.050;2023-08-20T12:31:56;4.03;;;0.50;;
37411;SDS011;23278;52.110;6.050;2023-08-20T12:34:22;2.22;;;0.40;;
37411;SDS011;23278;52.110;6.050;2023-08-20T12:36:49;1.05;;;0.45;;
37411;SDS011;23278;52.110;6.050;2023-08-20T12:39:15;1.00;;;0.30;;
37411;SDS011;23278;52.110;6.050;2023-08-20T12:41:41;0.95;;;0.32;;
37411;SDS011;23278;52.110;6.050;2023-08-20T12:44:08;2.55;;;0.60;;
37411;SDS011;23278;52.110;6.050;2023-08-20T12:46:34;3.15;;;0.50;;
37411;SDS011;23278;52.110;6.050;2023-08-20T12:49:00;1.52;;;0.30;;
37411;SDS011;23278;52.110;6.050;2023-08-20T12:51:26;4.32;;;0.50;;
37411;SDS011;23278;52.110;6.050;2023-08-20T12:53:52;2.85;;;0.35;;
37411;SDS011;23278;52.110;6.050;2023-08-20T12:56:18;1.67;;;0.60;;
37411;SDS011;23278;52.110;6.050;2023-08-20T12:58:44;2.38;;;0.55;;
37411;SDS011;23278;52.110;6.050;2023-08-20T13:01:10;1.15;;;0.40;;
37411;SDS011;23278;52.110;6.050;2023-08-20T13:03:36;1.45;;;0.40;;
37411;SDS011;23278;52.110;6.050;2023-08-20T13:06:03;2.95;;;0.50;;
37411;SDS011;23278;52.110;6.050;2023-08-20T13:08:29;9.15;;;0.77;;
37411;SDS011;23278;52.110;6.050;2023-08-20T13:10:56;3.58;;;0.40;;
37411;SDS011;23278;52.110;6.050;2023-08-20T13:13:23;3.38;;;0.50;;
37411;SDS011;23278;52.110;6.050;2023-08-20T13:15:50;2.60;;;0.60;;
37411;SDS011;23278;52.110;6.050;2023-08-20T13:18:17;1.23;;;0.30;;
37411;SDS011;23278;52.110;6.050;2023-08-20T13:20:44;1.55;;;0.50;;
37411;SDS011;23278;52.110;6.050;2023-08-20T13:23:10;1.83;;;0.45;;
37411;SDS011;23278;52.110;6.050;2023-08-20T13:25:36;1.90;;;0.80;;
37411;SDS011;23278;52.110;6.050;2023-08-20T13:28:02;1.20;;;0.50;;
37411;SDS011;23278;52.110;6.050;2023-08-20T13:30:28;2.03;;;0.65;;
37411;SDS011;23278;52.110;6.050;2023-08-20T13:32:54;1.13;;;0.30;;
37411;SDS011;23278;52.110;6.050;2023-08-20T13:35:20;1.75;;;0.40;;
37411;SDS011;23278;52.110;6.050;2023-08-20T13:37:48;1.88;;;0.40;;
37411;SDS011;23278;52.110;6.050;2023-08-20T13:40:13;1.23;;;0.40;;
37411;SDS011;23278;52.110;6.050;2023-08-20T13:42:39;1.48;;;0.30;;
37411;SDS011;23278;52.110;6.050;2023-08-20T13:45:05;11.50;;;0.50;;
37411;SDS011;23278;52.110;6.050;2023-08-20T13:47:32;1.83;;;0.50;;
37411;SDS011;23278;52.110;6.050;2023-08-20T13:49:58;1.50;;;0.40;;
37411;SDS011;23278;52.110;6.050;2023-08-20T13:52:24;2.33;;;0.60;;
37411;SDS011;23278;52.110;6.050;2023-08-20T13:54:50;2.28;;;0.50;;
37411;SDS011;23278;52.110;6.050;2023-08-20T13:57:16;1.27;;;0.52;;
37411;SDS011;23278;52.110;6.050;2023-08-20T13:59:42;3.08;;;0.40;;
37411;SDS011;23278;52.110;6.050;2023-08-20T14:02:08;1.60;;;0.40;;
37411;SDS011;23278;52.110;6.050;2023-08-20T14:04:33;2.38;;;0.50;;
37411;SDS011;23278;52.110;6.050;2023-08-20T14:07:00;1.15;;;0.40;;
37411;SDS011;23278;52.110;6.050;2023-08-20T14:09:27;0.57;;;0.30;;
37411;SDS011;23278;52.110;6.050;2023-08-20T14:11:53;2.00;;;0.63;;
37411;SDS011;23278;52.110;6.050;2023-08-20T14:14:19;1.90;;;0.40;;
37411;SDS011;23278;52.110;6.050;2023-08-20T14:16:45;1.25;;;0.40;;
37411;SDS011;23278;52.110;6.050;2023-08-20T14:19:11;1.50;;;0.45;;
37411;SDS011;23278;52.110;6.050;2023-08-20T14:21:37;1.77;;;0.35;;
37411;SDS011;23278;52.110;6.050;2023-08-20T14:24:03;1.75;;;0.50;;
37411;SDS011;23278;52.110;6.050;2023-08-20T14:26:29;1.77;;;0.47;;
37411;SDS011;23278;52.110;6.050;2023-08-20T14:28:58;1.77;;;0.70;;
37411;SDS011;23278;52.110;6.050;2023-08-20T14:31:25;1.10;;;0.38;;
37411;SDS011;23278;52.110;6.050;2023-08-20T14:33:51;1.35;;;0.30;;
37411;SDS011;23278;52.110;6.050;2023-08-20T14:36:17;1.13;;;0.40;;
37411;SDS011;23278;52.110;6.050;2023-08-20T14:38:42;2.92;;;0.40;;
37411;SDS011;23278;52.110;6.050;2023-08-20T14:41:08;4.50;;;0.43;;
37411;SDS011;23278;52.110;6.050;2023-08-20T14:43:35;0.80;;;0.40;;
37411;SDS011;23278;52.110;6.050;2023-08-20T14:46:01;2.30;;;0.38;;
37411;SDS011;23278;52.110;6.050;2023-08-20T14:48:27;2.53;;;0.50;;
37411;SDS011;23278;52.110;6.050;2023-08-20T14:50:53;1.15;;;0.38;;
37411;SDS011;23278;52.110;6.050;2023-08-20T14:53:19;1.63;;;0.57;;
37411;SDS011;23278;52.110;6.050;2023-08-20T14:55:45;0.80;;;0.50;;
37411;SDS011;23278;52.110;6.050;2023-08-20T14:58:11;3.92;;;0.40;;
37411;SDS011;23278;52.110;6.050;2023-08-20T15:00:38;1.67;;;0.40;;
37411;SDS011;23278;52.110;6.050;2023-08-20T15:03:04;1.45;;;0.50;;
37411;SDS011;23278;52.110;6.050;2023-08-20T15:05:31;3.63;;;0.47;;
37411;SDS011;23278;52.110;6.050;2023-08-20T15:07:57;2.08;;;0.47;;
37411;SDS011;23278;52.110;6.050;2023-08-20T15:10:24;1.50;;;0.50;;
37411;SDS011;23278;52.110;6.050;2023-08-20T15:12:49;1.65;;;0.50;;